• Join FlightAware (Why Join?)
  • Login
  • US Flag 
10:27AM EST


 

Airport Tracker/Info


-or-


 

Live Flight TrackerFlight Track Log ✈ SWA57 ✈ 28-Jun-2013 ✈ KDAL - KHOU

Flight Track Log - Related Links

Times and Time Zones

All times are in EDT time to prevent confusion due to time zone crossing. See the SWA57 flight status page for this flight to view local times or setup timezone preferences in your user account.

Time Position Orientation Groundspeed Altitude Reporting Facility
EDT Latitude Longitude Course Direction KTS MPH feet Rate Location/Type
09:56PM 32.8833 -96.8833 320° Northwest 200 230 3,300  Level Dallas / Fort Worth TRACON
09:56PM 32.9167 -96.9500 301° West 229 264 7,000 3,120 Climbing Dallas / Fort Worth TRACON
09:59PM 32.7325 -96.9961 192° South 366 421 13,600 3,000 Climbing Fort Worth Center
10:00PM 32.6281 -96.9817 173° South 407 468 17,200 3,600 Climbing Fort Worth Center
10:01PM 32.4964 -96.9675 175° South 435 501 20,900 3,180 Climbing Fort Worth Center
10:02PM 32.3878 -96.9508 173° South 442 509 23,600 2,640 Climbing Fort Worth Center
10:03PM 32.2606 -96.9344 174° South 453 521 26,200 2,700 Climbing Fort Worth Center
10:04PM 32.1308 -96.9128 172° South 459 528 29,100 2,820 Climbing Fort Worth Center
10:05PM 32.0056 -96.8917 172° South 467 537 31,900 1,620 Climbing Fort Worth Center
10:06PM 31.8292 -96.8583 171° South 463 533 33,000 420 Climbing Houston Center
10:07PM 31.6986 -96.8358 172° South 468 539 33,000  Level Houston Center
10:08PM 31.5686 -96.8153 172° South 467 537 33,000  Level Houston Center
10:09PM 31.4414 -96.7733 164° South 472 543 33,000  Level Houston Center
10:10PM 31.3203 -96.7183 159° South 463 533 33,000  Level Houston Center
10:11PM 31.1994 -96.6622 158° South 461 531 33,000  Level Houston Center
10:12PM 31.0783 -96.6053 158° South 460 529 33,000 -1,020 Level Houston Center
10:13PM 30.9564 -96.5500 159° South 462 532 31,000 -2,760 Descending Houston Center
10:14PM 30.8361 -96.4953 159° South 460 529 27,400 -3,240 Descending Houston Center
10:15PM 30.7142 -96.4386 158° South 463 533 24,400 -3,000 Descending Houston Center
10:16PM 30.5997 -96.3850 158° South 442 509 21,400 -2,880 Descending Houston Center
10:17PM 30.4892 -96.3356 159° South 423 487 18,600 -2,820 Descending Houston Center
10:18PM 30.3828 -96.2875 159° South 406 467 15,700 -3,120 Descending Houston Center
10:19PM 30.3083 -96.2547 159° South 399 459 13,700 -2,880 Descending Houston Center
10:20PM 30.2100 -96.2078 158° South 388 447 11,100 -1,380 Descending Houston Center
10:21PM 30.1111 -96.1561 156° South 369 425 11,000 -600 Descending Houston Center
10:22PM 30.0453 -96.0717 132° Southeast 360 414 10,000 -540 Descending Houston Center
10:23PM 29.9964 -95.9689 119° Southeast 354 407 10,000  Level Houston Center
10:24PM 29.9525 -95.8728 118° Southeast 318 366 10,000 -900 Level Houston Center
10:25PM 29.9083 -95.7767 118° Southeast 302 348 8,200 -1,620 Descending Houston Center
10:26PM 29.8692 -95.6919 118° Southeast 293 337 6,600 -1,500 Descending Houston Center
10:27PM 29.8353 -95.6164 117° Southeast 291 335 5,300 -1,200 Descending Houston Center
10:28PM 29.7969 -95.5392 120° Southeast 273 314 4,300 -720 Descending Houston Center
10:29PM 29.7653 -95.4683 117° Southeast 250 288 3,900 -780 Descending Houston Center
10:30PM 29.7339 -95.4022 119° Southeast 250 288 2,800 -1,200 Descending Houston Center
10:31PM 29.7194 -95.3706 118° Southeast 242 278 2,100 -1,020 Descending Houston Center
10:32PM 29.6889 -95.3314 132° Southeast 192 221 1,200 -840 Descending Houston Center
10:33PM 29.6631 -95.3000 133° Southeast 158 182 400 -600 Descending Houston Center
10:34PM 29.6356 -95.2669 134° Southeast 145 167 100 -300 Descending Houston Center